createdAt,value
2024-03-10T00:01:02.651Z,98173.92
2024-03-10T00:06:06.989Z,98172.16
2024-03-10T00:11:10.970Z,98172.01
2024-03-10T00:16:14.437Z,98167.14
2024-03-10T00:21:17.664Z,98165.70
2024-03-10T00:26:21.176Z,98162.55
2024-03-10T00:31:25.344Z,98163.01
2024-03-10T00:36:29.692Z,98157.89
2024-03-10T00:41:32.945Z,98159.00
2024-03-10T00:46:36.069Z,98151.23
2024-03-10T00:51:40.570Z,98145.71
2024-03-10T00:56:43.783Z,98145.42
2024-03-10T01:01:47.150Z,98137.56
2024-03-10T01:06:50.539Z,98131.83
2024-03-10T01:11:54.660Z,98124.77
2024-03-10T01:16:58.254Z,98121.66
2024-03-10T01:22:02.060Z,98116.31
2024-03-10T01:27:05.297Z,98115.27
2024-03-10T01:32:09.235Z,98113.05
2024-03-10T01:37:12.723Z,98102.80
2024-03-10T01:42:16.025Z,98094.13
2024-03-10T01:47:19.577Z,98087.63
2024-03-10T01:52:24.292Z,98084.11
2024-03-10T01:57:29.280Z,98078.02
2024-03-10T02:02:32.772Z,98079.58
2024-03-10T02:07:35.990Z,98073.11
2024-03-10T02:12:39.136Z,98072.16
2024-03-10T02:17:42.735Z,98066.41
2024-03-10T02:22:46.696Z,98054.75
2024-03-10T02:27:53.346Z,98048.37
2024-03-10T02:33:15.505Z,98042.93
2024-03-10T02:38:37.166Z,98042.73
2024-03-10T02:44:00.570Z,98036.27
2024-03-10T02:49:04.563Z,98031.27
2024-03-10T02:54:08.403Z,98026.00
2024-03-10T02:59:12.068Z,98021.78
2024-03-10T03:04:16.086Z,98022.76
2024-03-10T03:09:21.047Z,98018.38
2024-03-10T03:14:24.308Z,98013.42
2024-03-10T03:19:28.009Z,98009.17
2024-03-10T03:24:31.278Z,98007.33
2024-03-10T03:29:34.813Z,98007.81
2024-03-10T03:34:38.821Z,98009.56
2024-03-10T03:39:42.181Z,98010.89
2024-03-10T03:44:45.337Z,98004.64
2024-03-10T03:49:48.696Z,98006.73
2024-03-10T03:54:52.446Z,98005.45
2024-03-10T03:59:55.851Z,97998.88
2024-03-10T04:04:59.763Z,97997.90
2024-03-10T04:10:03.111Z,97992.06
2024-03-10T04:15:07.448Z,97994.91
2024-03-10T04:20:14.005Z,97997.94
2024-03-10T04:25:17.638Z,97992.70
2024-03-10T04:30:22.884Z,97988.58
2024-03-10T04:35:26.264Z,97992.58
2024-03-10T04:40:29.313Z,97988.48
2024-03-10T04:45:33.470Z,97990.66
2024-03-10T04:50:36.610Z,97988.98
2024-03-10T04:55:40.165Z,97990.23
2024-03-10T05:00:43.498Z,97979.56
2024-03-10T05:05:46.610Z,97979.34
2024-03-10T05:10:50.880Z,97982.71
2024-03-10T05:15:54.126Z,97984.05
2024-03-10T05:20:57.372Z,97977.41
2024-03-10T05:26:00.661Z,97975.94
2024-03-10T05:31:04.094Z,97985.14
2024-03-10T05:36:08.486Z,97977.30
2024-03-10T05:41:12.982Z,97978.63
2024-03-10T05:46:16.869Z,97979.61
2024-03-10T05:51:20.176Z,97975.11
2024-03-10T05:56:23.768Z,97973.08
2024-03-10T06:01:26.991Z,97966.39
2024-03-10T06:06:30.270Z,97962.01
2024-03-10T06:11:33.580Z,97964.48
2024-03-10T06:16:36.717Z,97961.83
2024-03-10T06:22:03.660Z,97971.38
2024-03-10T06:27:09.765Z,97970.52
2024-03-10T06:32:15.596Z,97965.67
2024-03-10T06:37:20.296Z,97967.30
2024-03-10T06:42:23.655Z,97962.45
2024-03-10T06:47:26.963Z,97960.48
2024-03-10T06:52:30.091Z,97961.65
2024-03-10T06:57:34.149Z,97955.14
2024-03-10T07:02:41.822Z,97955.39
2024-03-10T07:07:46.786Z,97957.60
2024-03-10T07:12:49.929Z,97947.22
2024-03-10T07:17:56.832Z,97935.16
2024-03-10T07:23:00.169Z,97934.34
2024-03-10T07:28:03.469Z,97934.16
2024-03-10T07:33:06.981Z,97926.20
2024-03-10T07:38:10.592Z,97915.66
2024-03-10T07:43:14.291Z,97915.88
2024-03-10T07:48:18.926Z,97907.76
2024-03-10T07:53:31.793Z,97902.52
2024-03-10T07:58:35.104Z,97900.23
2024-03-10T08:03:38.273Z,97897.31
2024-03-10T08:08:41.523Z,97886.05
2024-03-10T08:13:45.852Z,97886.40
2024-03-10T08:18:51.156Z,97883.42
2024-03-10T08:23:55.786Z,97879.54
2024-03-10T08:29:03.594Z,97872.38
2024-03-10T08:34:06.968Z,97875.87
2024-03-10T08:39:13.301Z,97872.23
2024-03-10T08:44:16.862Z,97863.84
2024-03-10T08:49:22.653Z,97859.33
2024-03-10T08:54:26.510Z,97857.02
2024-03-10T08:59:30.203Z,97856.19
2024-03-10T09:04:37.534Z,97858.93
2024-03-10T09:09:40.631Z,97860.74
2024-03-10T09:14:44.247Z,97862.95
2024-03-10T09:19:49.428Z,97856.17
2024-03-10T09:24:53.809Z,97861.73
2024-03-10T09:29:58.810Z,97859.42
2024-03-10T09:35:04.010Z,97855.73
2024-03-10T09:40:14.571Z,97843.31
2024-03-10T09:45:22.215Z,97845.48
2024-03-10T09:50:26.197Z,97846.05
2024-03-10T09:55:29.524Z,97838.95
2024-03-10T10:00:32.954Z,97833.14
2024-03-10T10:05:43.669Z,97827.68
2024-03-10T10:10:50.542Z,97822.80
2024-03-10T10:15:58.290Z,97820.41
2024-03-10T10:21:08.232Z,97822.16
2024-03-10T10:26:11.743Z,97818.23
2024-03-10T10:31:16.355Z,97811.73
2024-03-10T10:36:22.419Z,97810.60
2024-03-10T10:41:25.766Z,97811.23
2024-03-10T10:46:30.331Z,97816.01
2024-03-10T10:51:34.872Z,97809.14
2024-03-10T10:56:38.229Z,97812.45
2024-03-10T11:01:47.092Z,97805.77
2024-03-10T11:06:56.104Z,97801.78
2024-03-10T11:11:59.769Z,97801.83
2024-03-10T11:17:13.532Z,97800.23
2024-03-10T11:22:21.850Z,97796.80
2024-03-10T11:27:27.653Z,97792.02
2024-03-10T11:32:35.446Z,97789.27
2024-03-10T11:37:39.693Z,97783.78
2024-03-10T11:42:44.078Z,97778.48
2024-03-10T11:47:47.343Z,97772.66
2024-03-10T11:52:50.681Z,97765.11
2024-03-10T11:57:57.733Z,97762.21
2024-03-10T12:03:02.058Z,97766.42
2024-03-10T12:08:17.873Z,97765.30
2024-03-10T12:13:24.631Z,97758.16
2024-03-10T12:18:29.814Z,97755.42
2024-03-10T12:23:40.965Z,97754.02
2024-03-10T12:28:47.477Z,97754.63
2024-03-10T12:33:50.772Z,97749.13
2024-03-10T12:38:53.965Z,97747.61
2024-03-10T12:43:58.247Z,97745.88
2024-03-10T12:49:02.380Z,97750.42
2024-03-10T12:54:07.607Z,97735.88
2024-03-10T12:59:11.584Z,97729.52
2024-03-10T13:04:16.071Z,97717.30
2024-03-10T13:09:19.509Z,97719.91
2024-03-10T13:14:22.724Z,97717.19
2024-03-10T13:19:26.712Z,97720.27
2024-03-10T13:24:32.069Z,97712.52
2024-03-10T13:29:36.658Z,97709.36
2024-03-10T13:34:42.639Z,97706.20
2024-03-10T13:39:48.241Z,97703.83
2024-03-10T13:44:53.728Z,97699.05
2024-03-10T13:49:57.287Z,97692.71
2024-03-10T13:55:00.736Z,97684.08
2024-03-10T14:00:15.030Z,97684.63
2024-03-10T14:05:20.157Z,97687.40
2024-03-10T14:10:27.697Z,97685.70
2024-03-10T14:15:39.397Z,97688.65
2024-03-10T14:20:46.361Z,97684.63
2024-03-10T14:25:49.486Z,97681.45
2024-03-10T14:30:55.317Z,97677.68
2024-03-10T14:35:58.811Z,97678.74
2024-03-10T14:41:08.032Z,97685.40
2024-03-10T14:46:12.085Z,97683.77
2024-03-10T14:51:15.460Z,97679.30
2024-03-10T14:56:19.565Z,97687.92
2024-03-10T15:01:28.657Z,97677.59
2024-03-10T15:06:34.658Z,97682.65
2024-03-10T15:11:38.435Z,97675.71
2024-03-10T15:16:45.853Z,97672.30
2024-03-10T15:21:49.156Z,97668.19
2024-03-10T15:26:54.015Z,97664.52
2024-03-10T15:31:58.899Z,97664.63
2024-03-10T15:37:05.826Z,97667.87
2024-03-10T15:42:09.298Z,97662.77
2024-03-10T15:47:22.031Z,97661.80
2024-03-10T15:52:25.639Z,97660.20
2024-03-10T15:57:29.112Z,97655.48
2024-03-10T16:02:34.177Z,97659.91
2024-03-10T16:07:37.897Z,97665.34
2024-03-10T16:12:42.733Z,97669.10
2024-03-10T16:17:46.320Z,97679.80
2024-03-10T16:22:50.482Z,97680.31
2024-03-10T16:27:54.300Z,97679.36
2024-03-10T16:32:57.884Z,97683.13
2024-03-10T16:38:01.517Z,97686.67
2024-03-10T16:43:05.344Z,97685.34
2024-03-10T16:48:09.484Z,97691.14
2024-03-10T16:53:15.801Z,97699.93
2024-03-10T16:58:21.962Z,97708.94
2024-03-10T17:03:25.610Z,97712.44
2024-03-10T17:08:29.511Z,97706.27
2024-03-10T17:13:36.485Z,97707.89
2024-03-10T17:18:45.768Z,97710.11
2024-03-10T17:23:49.605Z,97706.44
2024-03-10T17:28:57.759Z,97704.45
2024-03-10T17:34:02.050Z,97702.20
2024-03-10T17:39:07.282Z,97700.00
2024-03-10T17:44:10.775Z,97690.22
2024-03-10T17:49:15.062Z,97688.63
2024-03-10T17:54:18.185Z,97691.43
2024-03-10T17:59:22.211Z,97685.71
2024-03-10T18:04:25.622Z,97687.52
2024-03-10T18:09:29.163Z,97680.91
2024-03-10T18:14:34.958Z,97686.64
2024-03-10T18:19:38.878Z,97686.59
2024-03-10T18:24:44.711Z,97677.35
2024-03-10T18:29:48.525Z,97683.07
2024-03-10T18:34:52.306Z,97684.08
2024-03-10T18:39:56.285Z,97676.27
2024-03-10T18:44:59.249Z,97683.81
2024-03-10T18:50:02.362Z,97683.95
2024-03-10T18:55:06.414Z,97689.66
2024-03-10T19:00:12.938Z,97698.67
2024-03-10T19:05:21.753Z,97697.83
2024-03-10T19:10:25.089Z,97698.47
2024-03-10T19:15:28.294Z,97697.59
2024-03-10T19:20:33.067Z,97698.66
2024-03-10T19:25:36.695Z,97697.83
2024-03-10T19:30:40.116Z,97700.23
2024-03-10T19:35:44.935Z,97698.17
2024-03-10T19:40:48.481Z,97686.61
2024-03-10T19:45:51.935Z,97681.75
2024-03-10T19:50:55.164Z,97689.80
2024-03-10T19:55:58.591Z,97686.67
2024-03-10T20:01:02.856Z,97693.11
2024-03-10T20:06:07.178Z,97686.90
2024-03-10T20:11:10.570Z,97689.88
2024-03-10T20:16:13.945Z,97692.29
2024-03-10T20:21:17.076Z,97690.61
2024-03-10T20:26:20.194Z,97695.40
2024-03-10T20:31:25.595Z,97694.82
2024-03-10T20:36:30.885Z,97695.98
2024-03-10T20:41:34.109Z,97692.02
2024-03-10T20:46:39.469Z,97686.10
2024-03-10T20:51:42.998Z,97684.32
2024-03-10T20:56:46.124Z,97686.30
2024-03-10T21:01:49.158Z,97694.23
2024-03-10T21:06:52.834Z,97687.49
2024-03-10T21:11:57.420Z,97685.52
2024-03-10T21:17:01.010Z,97683.56
2024-03-10T21:22:07.349Z,97678.75
2024-03-10T21:27:09.802Z,97679.83
2024-03-10T21:32:13.099Z,97680.47
2024-03-10T21:37:16.395Z,97671.73
2024-03-10T21:42:20.554Z,97671.12
2024-03-10T21:47:24.685Z,97666.38
2024-03-10T21:52:28.397Z,97663.39
2024-03-10T21:57:31.448Z,97662.86
2024-03-10T22:02:34.808Z,97658.79
2024-03-10T22:07:38.041Z,97654.67
2024-03-10T22:12:43.404Z,97650.84
2024-03-10T22:17:48.161Z,97647.89
2024-03-10T22:22:51.898Z,97649.73
2024-03-10T22:27:57.001Z,97644.97
2024-03-10T22:33:01.058Z,97652.31
2024-03-10T22:38:04.334Z,97647.78
2024-03-10T22:43:09.637Z,97645.08
2024-03-10T22:48:12.686Z,97638.14
2024-03-10T22:53:16.673Z,97638.83
2024-03-10T22:58:19.898Z,97640.59
2024-03-10T23:03:23.453Z,97644.73
2024-03-10T23:08:26.628Z,97647.73
2024-03-10T23:13:29.778Z,97647.65
2024-03-10T23:18:33.806Z,97648.33
2024-03-10T23:23:39.186Z,97651.79
2024-03-10T23:28:43.712Z,97649.33
2024-03-10T23:33:46.971Z,97646.80
2024-03-10T23:38:50.363Z,97643.31
2024-03-10T23:43:53.510Z,97638.13
2024-03-10T23:48:57.158Z,97646.01
2024-03-10T23:54:00.353Z,97644.27
2024-03-10T23:59:03.549Z,97641.39
